Time;durP1;ratioP1;P1;durP2;ratioP2;P2;SDS_P1;SDS_P2;PMS_P1;PMS_P2;Temp;Humidity;BMP_temperature;BMP_pressure;BME280_temperature;BME280_humidity;BME280_pressure;Samples;Min_cycle;Max_cycle;Signal;HPM_P1;HPM_P2
2023/11/17 00:30:41;;;;;;;1.03;1.03;;;-2.10;99.90;;;;;;1944207;72;27183;-90
2023/11/17 01:38:13;;;;;;;1.50;1.10;;;-2.70;99.90;;;;;;2020065;69;25165;-90
2023/11/17 02:01:48;;;;;;;1.33;1.10;;;-2.70;99.90;;;;;;1948353;71;26917;-92
2023/11/17 03:07:01;;;;;;;1.80;1.40;;;-4.00;99.90;;;;;;1819872;73;25795;-90
2023/11/17 03:42:32;;;;;;;1.63;1.40;;;-4.00;99.90;;;;;;1977755;70;27063;-90
2023/11/17 04:15:54;;;;;;;1.83;1.40;;;-4.50;99.90;;;;;;1967918;72;27616;-90
2023/11/17 04:18:47;;;;;;;3.03;1.60;;;-4.50;99.90;;;;;;1878826;75;25214;-90
2023/11/17 04:21:37;;;;;;;15.73;1.83;;;-4.50;99.90;;;;;;1915958;74;25176;-90
2023/11/17 04:24:28;;;;;;;2.63;1.47;;;-4.40;99.90;;;;;;1920645;74;25205;-90
2023/11/17 04:27:19;;;;;;;7.47;1.73;;;-4.40;99.90;;;;;;1923002;72;25662;-89
2023/11/17 04:30:17;;;;;;;2.50;1.50;;;-4.40;99.90;;;;;;1914173;74;26395;-89
2023/11/17 04:36:59;;;;;;;7.03;1.40;;;-4.50;99.90;;;;;;1804559;75;25276;-89
2023/11/17 04:55:44;;;;;;;4.40;1.70;;;-4.60;99.90;;;;;;1910924;73;26275;-90
2023/11/17 05:01:34;;;;;;;2.80;1.50;;;-4.60;99.90;;;;;;1916935;74;27026;-89
2023/11/17 05:04:23;;;;;;;1.37;1.27;;;-4.50;99.90;;;;;;1879125;76;25336;-90
2023/11/17 05:43:08;;;;;;;2.13;1.67;;;-4.40;99.90;;;;;;1864741;74;26395;-89
2023/11/17 06:42:04;;;;;;;2.47;1.23;;;-2.80;99.90;;;;;;1953299;72;27031;-90
2023/11/17 06:44:52;;;;;;;2.50;1.37;;;-2.90;99.90;;;;;;1935670;73;25230;-91
2023/11/17 06:47:45;;;;;;;8.07;2.27;;;-2.90;99.90;;;;;;1929532;73;25201;-91
2023/11/17 06:53:22;;;;;;;9.20;2.10;;;-2.80;99.90;;;;;;1947170;72;27133;-91
2023/11/17 06:58:54;;;;;;;9.17;1.23;;;-2.70;99.90;;;;;;1960188;72;27055;-90
2023/11/17 07:01:46;;;;;;;10.53;1.67;;;-2.60;99.90;;;;;;1934059;72;26420;-91
2023/11/17 07:04:35;;;;;;;3.47;1.40;;;-2.50;99.90;;;;;;1940402;72;25355;-91
2023/11/17 07:24:34;;;;;;;2.70;1.50;;;-2.60;99.90;;;;;;2066208;68;27480;-91
2023/11/17 07:27:47;;;;;;;2.73;1.30;;;-2.50;99.90;;;;;;2026938;70;25152;-90
2023/11/17 07:30:37;;;;;;;3.63;1.27;;;-2.50;99.90;;;;;;2024884;69;25252;-91
2023/11/17 07:33:28;;;;;;;1.90;1.00;;;-2.60;99.90;;;;;;2037758;69;25303;-91
2023/11/17 07:36:21;;;;;;;0.87;0.83;;;-2.60;99.90;;;;;;2041081;69;25247;-91
2023/11/17 07:39:18;;;;;;;3.50;1.20;;;-2.50;99.90;;;;;;2044607;69;25187;-91
2023/11/17 07:42:13;;;;;;;1.60;1.20;;;-2.50;99.90;;;;;;2016880;70;25267;-90
2023/11/17 07:45:10;;;;;;;2.00;1.20;;;-2.60;99.90;;;;;;1998587;70;25137;-91
2023/11/17 07:48:48;;;;;;;10.13;1.80;;;-2.60;99.90;;;;;;2007453;70;25324;-91
2023/11/17 07:51:40;;;;;;;1.77;1.00;;;-2.50;99.90;;;;;;2018600;70;25246;-91
2023/11/17 07:54:33;;;;;;;2.10;1.23;;;-2.60;99.90;;;;;;1992286;71;25258;-91
2023/11/17 07:57:24;;;;;;;1.10;0.80;;;-2.60;99.90;;;;;;2014836;71;25249;-91
2023/11/17 08:00:35;;;;;;;3.63;1.03;;;-2.60;99.90;;;;;;2016200;71;25191;-91
2023/11/17 08:03:29;;;;;;;3.27;0.90;;;-2.60;99.90;;;;;;1998330;71;25210;-91
2023/11/17 08:06:22;;;;;;;1.93;1.17;;;-2.50;99.90;;;;;;1950860;72;25780;-91
2023/11/17 08:09:16;;;;;;;5.60;1.67;;;-2.60;99.90;;;;;;2005933;71;25163;-90
2023/11/17 08:12:14;;;;;;;2.00;1.37;;;-2.60;99.90;;;;;;2004971;71;25191;-91
2023/11/17 08:15:11;;;;;;;2.50;1.40;;;-2.60;99.90;;;;;;2008507;71;25156;-91
2023/11/17 08:18:19;;;;;;;1.60;1.40;;;-2.60;99.90;;;;;;1987415;71;25241;-91
2023/11/17 08:21:19;;;;;;;3.70;1.30;;;-2.50;99.90;;;;;;2004231;71;25169;-91
2023/11/17 08:27:47;;;;;;;2.90;0.97;;;-2.50;99.90;;;;;;1965515;72;29551;-91
2023/11/17 08:30:41;;;;;;;1.33;1.23;;;-2.40;99.90;;;;;;1927546;73;25218;-91
2023/11/17 08:34:02;;;;;;;1.63;1.10;;;-2.50;99.90;;;;;;1918297;73;25304;-90
2023/11/17 08:36:54;;;;;;;1.67;0.80;;;-2.40;99.90;;;;;;1947172;73;25233;-90
2023/11/17 08:39:47;;;;;;;1.27;1.03;;;-2.30;99.90;;;;;;1923032;73;25747;-93
2023/11/17 08:42:40;;;;;;;2.73;1.10;;;-2.30;99.90;;;;;;1923710;73;25246;-90
2023/11/17 08:45:34;;;;;;;1.90;1.30;;;-2.30;99.90;;;;;;1914356;74;25240;-91
2023/11/17 08:48:36;;;;;;;1.40;1.23;;;-2.50;99.90;;;;;;1904193;74;25228;-90
2023/11/17 08:54:30;;;;;;;4.97;1.30;;;-2.40;99.90;;;;;;1942864;72;28180;-91
2023/11/17 08:57:37;;;;;;;2.30;1.17;;;-2.30;99.90;;;;;;1919099;73;25707;-91
2023/11/17 09:00:30;;;;;;;2.27;1.33;;;-2.30;99.90;;;;;;1923725;73;25294;-91
2023/11/17 09:03:25;;;;;;;1.37;1.17;;;-2.30;99.90;;;;;;1920838;73;25842;-91
2023/11/17 09:06:23;;;;;;;2.70;1.80;;;-2.20;99.90;;;;;;1916802;73;25233;-90
2023/11/17 09:12:31;;;;;;;2.67;1.20;;;-2.20;99.90;;;;;;1907232;73;25244;-90
2023/11/17 09:15:38;;;;;;;1.53;1.17;;;-2.20;99.90;;;;;;1927205;73;25365;-91
2023/11/17 09:22:18;;;;;;;7.67;1.67;;;-2.10;99.90;;;;;;1917820;73;25336;-91
2023/11/17 09:25:15;;;;;;;1.20;1.10;;;-2.00;99.90;;;;;;1916362;73;25273;-90
2023/11/17 09:28:08;;;;;;;4.00;1.20;;;-2.00;99.90;;;;;;1926594;73;26496;-91
2023/11/17 09:31:13;;;;;;;3.50;1.50;;;-2.10;99.90;;;;;;1893530;75;25719;-91
2023/11/17 09:34:14;;;;;;;4.00;1.50;;;-2.10;99.90;;;;;;1926328;73;25968;-91
2023/11/17 09:40:25;;;;;;;2.87;1.23;;;-2.10;99.90;;;;;;1954603;72;26773;-91
2023/11/17 09:43:28;;;;;;;2.83;1.73;;;-2.10;99.90;;;;;;1938005;72;25255;-91
2023/11/17 09:46:45;;;;;;;8.73;2.00;;;-1.90;99.90;;;;;;1864995;76;25293;-91
2023/11/17 09:50:00;;;;;;;2.57;1.43;;;-1.80;99.90;;;;;;1867106;75;25324;-91
2023/11/17 10:10:58;;;;;;;4.63;1.50;;;-1.70;99.90;;;;;;1961877;72;27463;-91
2023/11/17 10:14:19;;;;;;;3.53;1.40;;;-1.70;99.90;;;;;;1931693;73;25186;-91
2023/11/17 10:17:43;;;;;;;2.27;1.47;;;-1.70;99.90;;;;;;1924219;73;25176;-91
2023/11/17 10:20:50;;;;;;;1.43;1.10;;;-1.60;99.90;;;;;;1933919;73;25713;-91
2023/11/17 10:24:03;;;;;;;5.03;1.77;;;-1.70;99.90;;;;;;1924546;73;25282;-93
2023/11/17 10:26:55;;;;;;;6.37;2.00;;;-1.70;99.90;;;;;;1935645;73;25314;-91
2023/11/17 10:30:07;;;;;;;2.30;1.30;;;-1.60;99.90;;;;;;1925928;73;25187;-91
2023/11/17 10:47:57;;;;;;;2.97;1.20;;;-1.80;99.90;;;;;;1945483;72;26846;-91
2023/11/17 10:50:52;;;;;;;3.53;1.47;;;-1.70;99.90;;;;;;1967932;72;26102;-91
2023/11/17 10:54:17;;;;;;;2.57;1.57;;;-1.80;99.90;;;;;;1993388;71;25329;-91
2023/11/17 10:57:18;;;;;;;5.20;1.70;;;-1.70;99.90;;;;;;1952470;72;25242;-92
2023/11/17 11:00:33;;;;;;;1.27;1.17;;;-1.80;99.90;;;;;;1912237;74;25204;-92
2023/11/17 11:03:29;;;;;;;2.50;1.50;;;-1.70;99.90;;;;;;1959360;71;25610;-91
2023/11/17 11:06:25;;;;;;;2.83;1.70;;;-1.90;99.90;;;;;;1960299;71;25242;-92
2023/11/17 11:23:23;;;;;;;3.73;1.77;;;-1.80;99.90;;;;;;1934153;73;27605;-91
2023/11/17 13:06:40;;;;;;;8.27;2.93;;;-1.40;99.90;;;;;;1927266;72;32577;-91
2023/11/17 13:10:11;;;;;;;2.30;1.63;;;-1.50;99.90;;;;;;1938857;72;25246;-90
2023/11/17 13:13:41;;;;;;;2.53;1.63;;;-1.50;99.90;;;;;;1897168;75;25175;-91
2023/11/17 13:17:12;;;;;;;3.73;1.60;;;-1.50;99.90;;;;;;1903399;74;25265;-90
2023/11/17 13:57:22;;;;;;;5.43;1.83;;;-1.10;99.90;;;;;;1902513;74;25878;-90
2023/11/17 14:00:40;;;;;;;2.33;1.80;;;-1.20;99.90;;;;;;1899749;75;25225;-90
2023/11/17 14:07:32;;;;;;;3.10;1.90;;;-1.10;99.90;;;;;;1899961;74;25293;-91
2023/11/17 14:18:53;;;;;;;2.87;1.87;;;-0.90;99.90;;;;;;1891378;75;25255;-90
2023/11/17 14:22:27;;;;;;;4.83;2.90;;;-1.10;99.90;;;;;;1898790;74;25257;-89
2023/11/17 14:33:35;;;;;;;4.93;2.17;;;-1.30;99.90;;;;;;1887558;74;25311;-91
2023/11/17 14:40:59;;;;;;;3.37;1.87;;;-1.20;99.90;;;;;;1894422;74;26321;-91
2023/11/17 15:23:06;;;;;;;3.80;1.80;;;-1.20;99.90;;;;;;1885684;75;26441;-87
2023/11/17 15:39:59;;;;;;;4.80;1.90;;;-1.40;99.90;;;;;;1904198;74;28857;-88
2023/11/17 15:42:51;;;;;;;5.73;2.60;;;-1.40;99.90;;;;;;1947970;71;25387;-89
2023/11/17 15:48:25;;;;;;;6.10;3.67;;;-1.30;99.90;;;;;;1926808;72;27701;-88
2023/11/17 15:51:14;;;;;;;3.23;2.00;;;-1.30;99.90;;;;;;1901450;73;25248;-88
2023/11/17 15:54:03;;;;;;;4.60;1.67;;;-1.30;99.90;;;;;;1887179;74;25709;-88
2023/11/17 15:56:52;;;;;;;3.03;2.00;;;-1.30;99.90;;;;;;1896347;74;25218;-88
2023/11/17 15:59:41;;;;;;;4.80;2.07;;;-1.30;99.90;;;;;;1898252;75;25259;-88
2023/11/17 16:02:29;;;;;;;3.03;1.90;;;-1.30;99.90;;;;;;1913626;74;25742;-88
2023/11/17 16:05:18;;;;;;;3.70;2.13;;;-1.30;99.90;;;;;;1906794;74;25308;-88
2023/11/17 16:08:07;;;;;;;3.43;1.50;;;-1.40;99.90;;;;;;1919849;73;25263;-88
2023/11/17 16:10:56;;;;;;;3.37;1.83;;;-1.40;99.90;;;;;;1909513;73;25297;-88
2023/11/17 16:13:45;;;;;;;2.80;1.70;;;-1.40;99.90;;;;;;1900812;73;25165;-87
2023/11/17 16:16:36;;;;;;;3.87;1.73;;;-1.50;99.90;;;;;;1900276;73;25205;-86
2023/11/17 16:19:26;;;;;;;4.90;1.90;;;-1.50;99.90;;;;;;1898415;73;25230;-87
2023/11/17 17:05:01;;;;;;;5.63;2.00;;;-1.60;99.90;;;;;;1930601;73;25174;-91
2023/11/17 17:34:38;;;;;;;7.60;2.10;;;-1.90;99.90;;;;;;1913503;73;25287;-91
2023/11/17 18:15:09;;;;;;;6.77;3.60;;;-2.10;99.90;;;;;;1904439;75;27009;-91
2023/11/17 18:59:06;;;;;;;3.83;2.13;;;-2.30;99.90;;;;;;1927627;73;25195;-91
2023/11/17 19:02:13;;;;;;;4.77;2.33;;;-2.30;99.90;;;;;;1895393;75;25262;-91
2023/11/17 19:22:58;;;;;;;5.97;2.37;;;-2.50;99.90;;;;;;1949156;73;25248;-89
2023/11/17 19:29:51;;;;;;;2.50;1.40;;;-2.50;99.90;;;;;;1939907;72;25174;-91
2023/11/17 19:33:31;;;;;;;2.30;1.57;;;-2.50;99.90;;;;;;1898787;74;25296;-91
2023/11/17 19:43:09;;;;;;;1.43;1.33;;;-2.60;99.90;;;;;;1911270;74;25669;-90
2023/11/17 19:53:25;;;;;;;5.23;1.27;;;-2.50;99.90;;;;;;1921380;73;25264;-91
2023/11/17 19:56:43;;;;;;;3.70;1.57;;;-2.60;99.90;;;;;;1927726;73;25240;-91
2023/11/17 19:59:40;;;;;;;2.23;1.47;;;-2.60;99.90;;;;;;1920645;73;25243;-91
2023/11/17 20:13:21;;;;;;;4.87;1.40;;;-2.60;99.90;;;;;;1953171;72;27290;-91
2023/11/17 20:25:27;;;;;;;1.87;1.47;;;-2.80;99.90;;;;;;1947604;73;25187;-90
2023/11/17 20:28:30;;;;;;;1.80;1.60;;;-2.80;99.90;;;;;;1990958;72;25231;-91
2023/11/17 20:32:09;;;;;;;2.20;1.50;;;-2.90;99.90;;;;;;1997611;70;25262;-91
2023/11/17 20:39:38;;;;;;;1.50;1.40;;;-2.90;99.90;;;;;;1967657;71;25254;-91
2023/11/17 20:42:47;;;;;;;0.83;0.83;;;-3.00;99.90;;;;;;1982757;71;25680;-90
2023/11/17 21:02:51;;;;;;;0.83;0.83;;;-3.20;99.90;;;;;;1952164;72;30608;-91
2023/11/17 21:05:45;;;;;;;2.33;1.20;;;-3.20;99.90;;;;;;1935727;73;25654;-90
2023/11/17 21:08:52;;;;;;;1.47;1.37;;;-3.20;99.90;;;;;;1890072;73;25258;-90
2023/11/17 21:11:58;;;;;;;1.63;1.30;;;-3.20;99.90;;;;;;1916725;73;25603;-90
2023/11/17 21:14:58;;;;;;;1.10;1.00;;;-3.20;99.90;;;;;;1916533;73;25752;-90
2023/11/17 21:17:51;;;;;;;1.00;1.00;;;-3.20;99.90;;;;;;1917848;73;25352;-90
2023/11/17 21:20:50;;;;;;;1.20;1.00;;;-3.20;99.90;;;;;;1916706;73;25233;-89
2023/11/17 21:24:07;;;;;;;1.60;1.50;;;-3.30;99.90;;;;;;1916423;75;25825;-90
2023/11/17 21:27:00;;;;;;;2.03;1.53;;;-3.30;99.90;;;;;;1923166;73;25890;-90
2023/11/17 21:30:04;;;;;;;3.57;1.20;;;-3.20;99.90;;;;;;1916861;73;25155;-90
2023/11/17 21:32:57;;;;;;;2.07;1.40;;;-3.20;99.90;;;;;;1899619;73;25220;-90
2023/11/17 21:36:04;;;;;;;1.40;1.30;;;-3.20;99.90;;;;;;1901902;75;25318;-90
2023/11/17 21:39:01;;;;;;;5.63;2.50;;;-3.20;99.90;;;;;;1901805;73;25249;-90
2023/11/17 21:49:24;;;;;;;2.37;1.53;;;-3.20;99.90;;;;;;1956513;72;31580;-91
2023/11/17 21:59:30;;;;;;;4.80;1.90;;;-3.20;99.90;;;;;;1977061;72;27043;-91
2023/11/17 22:02:28;;;;;;;1.37;1.17;;;-3.20;99.90;;;;;;2025359;69;25188;-90
2023/11/17 22:05:44;;;;;;;2.30;1.70;;;-3.30;99.90;;;;;;2026582;70;25668;-90
2023/11/17 22:08:40;;;;;;;3.17;1.33;;;-3.20;99.90;;;;;;2024900;70;25163;-90
2023/11/17 22:11:37;;;;;;;1.17;1.00;;;-3.20;99.90;;;;;;2031821;70;25177;-90
2023/11/17 22:14:29;;;;;;;4.33;1.43;;;-3.30;99.90;;;;;;2042052;69;25179;-90
2023/11/17 22:17:27;;;;;;;1.13;1.00;;;-3.30;99.90;;;;;;2042229;70;25239;-90
2023/11/17 22:20:21;;;;;;;6.70;2.00;;;-3.40;99.90;;;;;;2028123;70;25243;-90
2023/11/17 22:23:14;;;;;;;4.00;1.50;;;-3.40;99.90;;;;;;2039205;70;25284;-90
2023/11/17 22:26:37;;;;;;;3.80;2.03;;;-3.40;99.90;;;;;;2037868;69;25266;-90
2023/11/17 22:29:43;;;;;;;3.53;1.80;;;-3.40;99.90;;;;;;2022245;69;25216;-90
2023/11/17 22:32:37;;;;;;;0.80;0.70;;;-3.30;99.90;;;;;;2036745;70;25185;-90
2023/11/17 22:35:31;;;;;;;4.87;1.80;;;-3.40;99.90;;;;;;2024601;70;25256;-90
2023/11/17 22:38:25;;;;;;;1.40;1.13;;;-3.40;99.90;;;;;;2021133;70;25222;-90
2023/11/17 22:41:23;;;;;;;1.50;1.30;;;-3.40;99.90;;;;;;2035502;70;25243;-90
2023/11/17 22:44:30;;;;;;;1.63;1.10;;;-3.40;99.90;;;;;;1993769;71;25154;-90
2023/11/17 23:06:48;;;;;;;2.37;1.60;;;-3.50;99.90;;;;;;1945254;71;27164;-90
2023/11/17 23:09:48;;;;;;;5.33;2.20;;;-3.40;99.90;;;;;;1925423;72;25286;-90
2023/11/17 23:13:00;;;;;;;3.83;1.40;;;-3.40;99.90;;;;;;2028671;70;25236;-90
2023/11/17 23:20:58;;;;;;;2.03;1.83;;;-3.40;99.90;;;;;;2017726;69;26923;-90
2023/11/17 23:23:50;;;;;;;2.37;1.50;;;-3.40;99.90;;;;;;1978893;71;25295;-91
2023/11/17 23:26:41;;;;;;;4.63;1.70;;;-3.40;99.90;;;;;;1973134;71;25251;-90
2023/11/17 23:29:31;;;;;;;1.60;1.13;;;-3.50;99.90;;;;;;1984373;71;25192;-90
2023/11/17 23:32:21;;;;;;;1.37;1.27;;;-3.50;99.90;;;;;;1957242;71;25227;-90
2023/11/17 23:35:15;;;;;;;1.93;1.40;;;-3.50;99.90;;;;;;1984710;71;25226;-90
2023/11/17 23:51:32;;;;;;;1.07;0.93;;;-3.60;99.90;;;;;;1917637;71;27020;-89
